createdAt,value
2023-01-07T00:00:17.047Z,99.99
2023-01-07T00:00:49.544Z,99.99
2023-01-07T00:01:22.069Z,99.99
2023-01-07T00:01:54.551Z,99.99
2023-01-07T00:02:27.073Z,99.99
2023-01-07T00:02:59.576Z,99.99
2023-01-07T00:03:32.044Z,99.99
2023-01-07T00:04:04.676Z,99.99
2023-01-07T00:04:37.093Z,99.99
2023-01-07T00:05:09.627Z,99.99
2023-01-07T00:05:42.239Z,99.99
2023-01-07T00:06:14.766Z,99.99
2023-01-07T00:06:47.414Z,99.99
2023-01-07T00:07:19.812Z,99.99
2023-01-07T00:07:52.359Z,99.99
2023-01-07T00:08:24.898Z,99.99
2023-01-07T00:08:57.421Z,99.99
2023-01-07T00:09:29.939Z,99.99
2023-01-07T00:10:02.496Z,99.99
2023-01-07T00:10:35.027Z,99.99
2023-01-07T00:11:07.548Z,99.99
2023-01-07T00:11:40.203Z,99.99
2023-01-07T00:12:12.705Z,99.99
2023-01-07T00:12:45.215Z,99.99
2023-01-07T00:13:17.698Z,99.99
2023-01-07T00:13:50.197Z,99.99
2023-01-07T00:14:22.709Z,99.99
2023-01-07T00:14:55.263Z,99.99
2023-01-07T00:15:27.798Z,99.99
2023-01-07T00:16:00.443Z,99.99
2023-01-07T00:16:32.849Z,99.99
2023-01-07T00:17:05.372Z,99.99
2023-01-07T00:17:37.887Z,99.99
2023-01-07T00:18:10.427Z,99.99
2023-01-07T00:18:43.112Z,99.99
2023-01-07T00:19:15.637Z,99.99
2023-01-07T00:19:48.316Z,99.99
2023-01-07T00:20:20.858Z,99.99
2023-01-07T00:20:53.378Z,99.99
2023-01-07T00:21:25.872Z,99.99
2023-01-07T00:21:58.369Z,99.99
2023-01-07T00:22:30.889Z,99.99
2023-01-07T00:23:03.442Z,99.99
2023-01-07T00:23:35.928Z,99.99
2023-01-07T00:24:08.448Z,99.99
2023-01-07T00:24:41.031Z,99.99
2023-01-07T00:25:13.551Z,99.99
2023-01-07T00:25:46.077Z,99.99
2023-01-07T00:26:18.618Z,99.99
2023-01-07T00:26:51.141Z,99.99
2023-01-07T00:27:23.678Z,99.99
2023-01-07T00:27:56.189Z,99.99
2023-01-07T00:28:28.687Z,99.99
2023-01-07T00:29:01.200Z,99.99
2023-01-07T00:29:33.725Z,99.99
2023-01-07T00:30:06.207Z,99.99
2023-01-07T00:30:38.718Z,99.99
2023-01-07T00:31:11.291Z,99.99
2023-01-07T00:31:43.852Z,99.99
2023-01-07T00:32:16.241Z,99.99
2023-01-07T00:32:48.731Z,99.99
2023-01-07T00:33:21.281Z,99.99
2023-01-07T00:33:53.821Z,99.99
2023-01-07T00:34:26.329Z,99.99
2023-01-07T00:34:58.756Z,99.99
2023-01-07T00:35:31.284Z,99.99
2023-01-07T00:36:03.937Z,99.99
2023-01-07T00:36:36.435Z,99.99
2023-01-07T00:37:08.921Z,99.99
2023-01-07T00:37:41.416Z,99.99
2023-01-07T00:38:13.917Z,99.99
2023-01-07T00:38:46.468Z,99.99
2023-01-07T00:39:18.964Z,99.99
2023-01-07T00:39:51.451Z,99.99
2023-01-07T00:40:23.969Z,99.99
2023-01-07T00:40:56.469Z,99.99
2023-01-07T00:41:28.982Z,99.99
2023-01-07T00:42:01.469Z,99.99
2023-01-07T00:42:33.984Z,99.99
2023-01-07T00:43:06.508Z,99.99
2023-01-07T00:43:38.998Z,99.99
2023-01-07T00:44:11.504Z,99.99
2023-01-07T00:44:43.985Z,99.99
2023-01-07T00:45:16.588Z,99.99
2023-01-07T00:45:49.191Z,99.99
2023-01-07T00:46:21.773Z,99.99
2023-01-07T00:46:54.242Z,99.99
2023-01-07T00:47:26.722Z,99.99
2023-01-07T00:47:59.345Z,99.99
2023-01-07T00:48:31.816Z,99.99
2023-01-07T00:49:04.517Z,99.99
2023-01-07T00:49:37.049Z,99.99
2023-01-07T00:50:09.557Z,99.99
2023-01-07T00:50:42.098Z,99.99
2023-01-07T00:51:14.561Z,99.99
2023-01-07T00:51:47.154Z,99.99
2023-01-07T00:52:19.700Z,99.99
2023-01-07T00:52:52.199Z,99.99
2023-01-07T00:53:24.711Z,99.99
2023-01-07T00:53:57.204Z,99.99
2023-01-07T00:54:29.710Z,99.99
2023-01-07T00:55:02.253Z,99.99
2023-01-07T00:55:34.780Z,99.99
2023-01-07T00:56:07.360Z,99.99
2023-01-07T00:56:39.938Z,99.99
2023-01-07T00:57:12.504Z,99.99
2023-01-07T00:57:45.028Z,99.99
2023-01-07T00:58:17.545Z,99.99
2023-01-07T00:58:50.059Z,99.99
2023-01-07T00:59:22.578Z,99.99
2023-01-07T00:59:55.099Z,99.99
2023-01-07T01:00:27.597Z,99.99
2023-01-07T01:01:00.250Z,99.99
2023-01-07T01:01:32.751Z,99.99
2023-01-07T01:02:05.257Z,99.99
2023-01-07T01:02:37.727Z,99.99
2023-01-07T01:03:10.253Z,99.99
2023-01-07T01:03:42.768Z,99.99
2023-01-07T01:04:15.245Z,99.99
2023-01-07T01:04:47.797Z,99.99
2023-01-07T01:05:20.282Z,99.99
2023-01-07T01:05:52.792Z,99.99
2023-01-07T01:06:25.295Z,99.99
2023-01-07T01:06:57.798Z,99.99
2023-01-07T01:07:30.277Z,99.99
2023-01-07T01:08:02.755Z,99.99
2023-01-07T01:08:35.267Z,99.99
2023-01-07T01:09:07.777Z,99.99
2023-01-07T01:09:40.337Z,99.99
2023-01-07T01:10:12.840Z,99.99
2023-01-07T01:10:45.398Z,99.99
2023-01-07T01:11:17.893Z,99.99
2023-01-07T01:11:50.457Z,99.99
2023-01-07T01:12:22.958Z,99.99
2023-01-07T01:12:55.427Z,99.99
2023-01-07T01:13:27.976Z,99.99
2023-01-07T01:14:00.549Z,99.99
2023-01-07T01:14:33.059Z,99.99
2023-01-07T01:15:05.575Z,99.99
2023-01-07T01:15:38.108Z,99.99
2023-01-07T01:16:10.648Z,99.99
2023-01-07T01:16:43.252Z,99.99
2023-01-07T01:17:15.734Z,99.99
2023-01-07T01:17:48.306Z,99.99
2023-01-07T01:18:20.869Z,99.99
2023-01-07T01:18:53.364Z,99.99
2023-01-07T01:19:25.868Z,99.99
2023-01-07T01:19:58.317Z,99.99
2023-01-07T01:20:30.883Z,99.99
2023-01-07T01:21:03.396Z,99.99
2023-01-07T01:21:35.933Z,99.99
2023-01-07T01:22:08.428Z,99.99
2023-01-07T01:22:40.939Z,99.99
2023-01-07T01:23:13.574Z,99.99
2023-01-07T01:23:46.117Z,99.99
2023-01-07T01:24:18.662Z,99.99
2023-01-07T01:24:51.196Z,99.99
2023-01-07T01:25:23.672Z,99.99
2023-01-07T01:25:56.188Z,99.99
2023-01-07T01:26:28.727Z,99.99
2023-01-07T01:27:01.235Z,99.99
2023-01-07T01:27:33.771Z,99.99
2023-01-07T01:28:06.263Z,99.99
2023-01-07T01:28:38.741Z,99.99
2023-01-07T01:29:11.227Z,99.99
2023-01-07T01:29:43.757Z,99.99
2023-01-07T01:30:16.279Z,99.99
2023-01-07T01:30:48.775Z,99.99
2023-01-07T01:31:21.332Z,99.99
2023-01-07T01:31:53.815Z,99.99
2023-01-07T01:32:26.296Z,99.99
2023-01-07T01:32:58.814Z,99.99
2023-01-07T01:33:31.382Z,99.99
2023-01-07T01:34:03.868Z,99.99
2023-01-07T01:34:36.441Z,99.99
2023-01-07T01:35:08.899Z,99.99
2023-01-07T01:35:41.457Z,99.99
2023-01-07T01:36:13.954Z,99.99
2023-01-07T01:36:46.733Z,99.99
2023-01-07T01:37:19.262Z,99.99
2023-01-07T01:37:51.893Z,99.99
2023-01-07T01:38:24.364Z,99.99
2023-01-07T01:38:56.866Z,99.99
2023-01-07T01:39:29.476Z,99.99
2023-01-07T01:40:02.004Z,99.99
2023-01-07T01:40:34.524Z,99.99
2023-01-07T01:41:07.037Z,99.99
2023-01-07T01:41:39.682Z,99.99
2023-01-07T01:42:12.178Z,99.99
2023-01-07T01:42:44.790Z,99.99
2023-01-07T01:43:17.325Z,99.99
2023-01-07T01:43:49.844Z,99.99
2023-01-07T01:44:22.329Z,99.99
2023-01-07T01:44:54.861Z,99.99
2023-01-07T01:45:27.347Z,99.99
2023-01-07T01:45:59.922Z,99.99
2023-01-07T01:46:32.516Z,99.99
2023-01-07T01:47:05.027Z,99.99
2023-01-07T01:47:37.507Z,99.99
2023-01-07T01:48:10.055Z,99.99
2023-01-07T01:48:42.595Z,99.99
2023-01-07T01:49:15.098Z,99.99
2023-01-07T01:49:47.623Z,99.99
2023-01-07T01:50:20.156Z,99.99
2023-01-07T01:50:52.618Z,99.99
2023-01-07T01:51:25.117Z,99.99
2023-01-07T01:51:57.668Z,99.99
2023-01-07T01:52:30.176Z,99.99
2023-01-07T01:53:02.667Z,99.99
2023-01-07T01:53:35.158Z,99.99
2023-01-07T01:54:07.777Z,99.99
2023-01-07T01:54:40.310Z,99.99
2023-01-07T01:55:13.388Z,99.99
2023-01-07T01:55:45.881Z,99.99
2023-01-07T01:56:18.351Z,99.99
2023-01-07T01:56:50.844Z,99.99
2023-01-07T01:57:23.402Z,99.99
2023-01-07T01:57:55.901Z,99.99
2023-01-07T01:58:28.471Z,99.99
2023-01-07T01:59:00.954Z,99.99
2023-01-07T01:59:33.575Z,99.99
2023-01-07T02:00:06.072Z,99.99
2023-01-07T02:00:38.669Z,99.99
2023-01-07T02:01:11.220Z,99.99
2023-01-07T02:01:43.861Z,99.99
2023-01-07T02:02:16.331Z,99.99
2023-01-07T02:02:48.814Z,99.99
2023-01-07T02:03:21.249Z,99.99
2023-01-07T02:03:53.759Z,99.99
2023-01-07T02:04:26.274Z,99.99
2023-01-07T02:04:58.812Z,99.99
2023-01-07T02:05:31.348Z,99.99
2023-01-07T02:06:03.880Z,99.99
2023-01-07T02:06:36.372Z,99.99
2023-01-07T02:07:08.894Z,99.99
2023-01-07T02:07:41.433Z,99.99
2023-01-07T02:08:13.962Z,99.99
2023-01-07T02:08:46.466Z,99.99
2023-01-07T02:09:19.098Z,99.99
2023-01-07T02:09:51.579Z,99.99
2023-01-07T02:10:24.111Z,99.99
2023-01-07T02:10:56.635Z,99.99
2023-01-07T02:11:29.156Z,99.99
2023-01-07T02:12:01.729Z,99.99
2023-01-07T02:12:34.211Z,99.99
2023-01-07T02:13:06.750Z,99.99
2023-01-07T02:13:39.386Z,99.99
2023-01-07T02:14:11.867Z,99.99
2023-01-07T02:14:44.383Z,99.99
2023-01-07T02:15:17.022Z,99.99
2023-01-07T02:15:49.536Z,99.99
2023-01-07T02:16:22.093Z,99.99
2023-01-07T02:16:54.551Z,99.99
2023-01-07T02:17:27.171Z,99.99
2023-01-07T02:17:59.719Z,99.99
2023-01-07T02:18:32.241Z,99.99
2023-01-07T02:19:04.922Z,99.99
2023-01-07T02:19:37.656Z,99.99
2023-01-07T02:20:10.200Z,99.99
2023-01-07T02:20:42.688Z,99.99
2023-01-07T02:21:15.189Z,99.99
2023-01-07T02:21:47.786Z,99.99
2023-01-07T02:22:20.363Z,99.99
2023-01-07T02:22:52.911Z,99.99
2023-01-07T02:23:25.439Z,99.99
2023-01-07T02:23:57.976Z,99.99
2023-01-07T02:24:30.501Z,99.99
2023-01-07T02:25:03.059Z,99.99
2023-01-07T02:25:35.618Z,99.99
2023-01-07T02:26:08.149Z,99.99
2023-01-07T02:26:40.715Z,99.99
2023-01-07T02:27:13.245Z,99.99
2023-01-07T02:27:45.750Z,99.99
2023-01-07T02:28:18.311Z,99.99
2023-01-07T02:28:50.838Z,99.99
2023-01-07T02:29:23.285Z,99.99
2023-01-07T02:29:55.822Z,99.99
2023-01-07T02:30:28.304Z,99.99
2023-01-07T02:31:00.798Z,99.99
2023-01-07T02:31:33.471Z,99.99
2023-01-07T02:32:05.939Z,99.99
2023-01-07T02:32:38.439Z,99.99
2023-01-07T02:33:10.943Z,99.99
2023-01-07T02:33:43.560Z,99.99
2023-01-07T02:34:16.099Z,99.99
2023-01-07T02:34:48.589Z,99.99
2023-01-07T02:35:21.058Z,99.99
2023-01-07T02:35:53.593Z,99.99
2023-01-07T02:36:26.101Z,99.99
2023-01-07T02:36:58.652Z,99.99
2023-01-07T02:37:31.172Z,99.99
2023-01-07T02:38:03.779Z,99.99
2023-01-07T02:38:36.311Z,99.99
2023-01-07T02:39:08.873Z,99.99
2023-01-07T02:39:41.381Z,99.99
2023-01-07T02:40:13.860Z,99.99
2023-01-07T02:40:46.356Z,99.99
2023-01-07T02:41:18.940Z,99.99
2023-01-07T02:41:51.440Z,99.99
2023-01-07T02:42:23.973Z,99.99
2023-01-07T02:42:56.503Z,99.99
2023-01-07T02:43:28.979Z,99.99
2023-01-07T02:44:01.461Z,99.99
2023-01-07T02:44:33.941Z,99.99
2023-01-07T02:45:06.419Z,99.99
2023-01-07T02:45:38.910Z,99.99
2023-01-07T02:46:11.431Z,99.99
2023-01-07T02:46:43.930Z,99.99
2023-01-07T02:47:16.436Z,99.99
2023-01-07T02:47:48.937Z,99.99
2023-01-07T02:48:21.456Z,99.99
2023-01-07T02:48:54.033Z,99.99
2023-01-07T02:49:26.494Z,99.99
2023-01-07T02:49:59.005Z,99.99
2023-01-07T02:50:31.503Z,99.99
2023-01-07T02:51:03.970Z,99.99
2023-01-07T02:51:36.541Z,99.99
2023-01-07T02:52:09.011Z,99.99
2023-01-07T02:52:41.539Z,99.99
2023-01-07T02:53:14.060Z,99.99
2023-01-07T02:53:46.558Z,99.99
2023-01-07T02:54:19.128Z,99.99
2023-01-07T02:54:51.648Z,99.99
2023-01-07T02:55:24.156Z,99.99
2023-01-07T02:55:56.674Z,99.99
2023-01-07T02:56:29.180Z,99.99
2023-01-07T02:57:01.726Z,99.99
2023-01-07T02:57:34.247Z,99.99
2023-01-07T02:58:06.723Z,99.99
2023-01-07T02:58:39.301Z,99.99
2023-01-07T02:59:11.851Z,99.99
2023-01-07T02:59:44.395Z,99.99
2023-01-07T03:00:16.923Z,99.99
2023-01-07T03:00:49.567Z,99.99
2023-01-07T03:01:22.004Z,99.99
2023-01-07T03:01:54.510Z,99.99
2023-01-07T03:02:26.922Z,99.99
2023-01-07T03:02:59.443Z,99.99
2023-01-07T03:03:31.899Z,99.99
2023-01-07T03:04:04.441Z,99.99
2023-01-07T03:04:36.915Z,99.99
2023-01-07T03:05:09.405Z,99.99
2023-01-07T03:05:41.919Z,99.99
2023-01-07T03:06:14.487Z,99.99
2023-01-07T03:06:46.954Z,99.99
2023-01-07T03:07:19.489Z,99.99
2023-01-07T03:07:52.082Z,99.99
2023-01-07T03:08:24.515Z,99.99
2023-01-07T03:08:57.060Z,99.99
2023-01-07T03:09:29.558Z,99.99
2023-01-07T03:10:02.136Z,99.99
2023-01-07T03:10:34.643Z,99.99
2023-01-07T03:11:07.121Z,99.99
2023-01-07T03:11:39.660Z,99.99
2023-01-07T03:12:12.124Z,99.99
2023-01-07T03:12:44.694Z,99.99
2023-01-07T03:13:17.196Z,99.99
2023-01-07T03:13:49.692Z,99.99
2023-01-07T03:14:22.177Z,99.99
2023-01-07T03:14:54.665Z,99.99
2023-01-07T03:15:28.904Z,99.99
2023-01-07T03:15:59.620Z,99.99
2023-01-07T03:16:32.159Z,99.99
2023-01-07T03:17:04.642Z,99.99
2023-01-07T03:17:37.149Z,99.99
2023-01-07T03:18:09.645Z,99.99
2023-01-07T03:18:42.155Z,99.99
2023-01-07T03:19:14.755Z,99.99
2023-01-07T03:19:47.234Z,99.99
2023-01-07T03:20:19.763Z,99.99
2023-01-07T03:20:52.229Z,99.99
2023-01-07T03:21:24.715Z,99.99
2023-01-07T03:21:57.220Z,99.99
2023-01-07T03:22:29.661Z,99.99
2023-01-07T03:23:02.219Z,99.99
2023-01-07T03:23:34.696Z,99.99
2023-01-07T03:24:07.218Z,99.99
2023-01-07T03:24:39.692Z,99.99
2023-01-07T03:25:12.175Z,99.99
2023-01-07T03:25:44.700Z,99.99
2023-01-07T03:26:17.197Z,99.99
2023-01-07T03:26:49.784Z,99.99
2023-01-07T03:27:22.286Z,99.99
2023-01-07T03:27:54.863Z,99.99
2023-01-07T03:28:27.404Z,99.99
2023-01-07T03:28:59.916Z,99.99
2023-01-07T03:29:32.423Z,99.98
2023-01-07T03:30:04.995Z,99.56
2023-01-07T03:30:37.478Z,99.56
2023-01-07T03:31:09.993Z,99.87
2023-01-07T03:31:42.547Z,99.98
2023-01-07T03:32:15.046Z,99.66
2023-01-07T03:32:47.578Z,99.98
2023-01-07T03:33:20.037Z,99.77
2023-01-07T03:33:52.579Z,99.56
2023-01-07T03:34:25.109Z,99.56
2023-01-07T03:34:57.613Z,99.56
2023-01-07T03:35:30.151Z,99.77
2023-01-07T03:36:02.705Z,99.66
2023-01-07T03:36:35.256Z,99.87
2023-01-07T03:37:07.766Z,99.56
2023-01-07T03:37:40.292Z,99.36
2023-01-07T03:38:12.774Z,99.46
2023-01-07T03:38:45.284Z,99.56
2023-01-07T03:39:17.899Z,99.99
2023-01-07T03:39:50.439Z,99.99
2023-01-07T03:40:22.989Z,99.93
2023-01-07T03:40:55.438Z,99.82
2023-01-07T03:41:28.032Z,99.15
2023-01-07T03:42:00.600Z,99.15
2023-01-07T03:42:33.122Z,99.36
2023-01-07T03:43:05.650Z,99.66
2023-01-07T03:43:38.159Z,99.77
2023-01-07T03:44:10.639Z,99.56
2023-01-07T03:44:43.216Z,99.31
2023-01-07T03:45:15.768Z,99.36
2023-01-07T03:45:48.332Z,99.15
2023-01-07T03:46:20.789Z,98.85
2023-01-07T03:46:53.489Z,98.85
2023-01-07T03:47:26.009Z,98.95
2023-01-07T03:47:58.502Z,98.95
2023-01-07T03:48:30.984Z,98.95
2023-01-07T03:49:03.491Z,98.90
2023-01-07T03:49:36.898Z,98.80
2023-01-07T03:50:08.559Z,98.74
2023-01-07T03:50:41.118Z,98.85
2023-01-07T03:51:13.667Z,98.95
2023-01-07T03:51:46.194Z,99.05
2023-01-07T03:52:18.726Z,99.15
2023-01-07T03:52:51.298Z,98.95
2023-01-07T03:53:23.881Z,98.65
2023-01-07T03:53:57.296Z,98.74
2023-01-07T03:54:29.824Z,98.95
2023-01-07T03:55:02.323Z,99.31
2023-01-07T03:55:34.866Z,99.21
2023-01-07T03:56:07.386Z,99.21
2023-01-07T03:56:39.963Z,99.66
2023-01-07T03:57:12.584Z,99.66
2023-01-07T03:57:45.086Z,99.62
2023-01-07T03:58:17.553Z,99.56
2023-01-07T03:58:50.108Z,98.95
2023-01-07T03:59:22.626Z,98.85
2023-01-07T03:59:55.120Z,98.74
2023-01-07T04:00:27.645Z,98.54
2023-01-07T04:01:00.323Z,98.54
2023-01-07T04:01:32.797Z,98.54
2023-01-07T04:02:05.323Z,98.85
2023-01-07T04:02:37.744Z,98.95
2023-01-07T04:03:10.295Z,99.26
2023-01-07T04:03:42.900Z,99.15
2023-01-07T04:04:15.472Z,99.56
2023-01-07T04:04:48.032Z,99.66
2023-01-07T04:05:20.499Z,99.26
2023-01-07T04:05:53.016Z,99.46
2023-01-07T04:06:25.522Z,99.05
2023-01-07T04:06:57.980Z,98.85
2023-01-07T04:07:30.540Z,98.95
2023-01-07T04:08:03.057Z,98.95
2023-01-07T04:08:35.577Z,98.95
2023-01-07T04:09:08.078Z,98.85
2023-01-07T04:09:40.591Z,98.74
2023-01-07T04:10:13.108Z,98.85
2023-01-07T04:10:45.634Z,99.26
2023-01-07T04:11:18.174Z,99.46
2023-01-07T04:11:50.660Z,99.26
2023-01-07T04:12:23.115Z,99.15
2023-01-07T04:12:55.589Z,99.26
2023-01-07T04:13:28.099Z,99.15
2023-01-07T04:14:00.698Z,99.05
2023-01-07T04:14:33.128Z,99.26
2023-01-07T04:15:05.647Z,99.05
2023-01-07T04:15:38.210Z,98.95
2023-01-07T04:16:10.662Z,99.26
2023-01-07T04:16:43.280Z,98.85
2023-01-07T04:17:15.667Z,98.74
2023-01-07T04:17:48.175Z,98.54
2023-01-07T04:18:20.729Z,98.33
2023-01-07T04:18:53.196Z,98.44
2023-01-07T04:19:25.691Z,98.54
2023-01-07T04:19:58.221Z,98.54
2023-01-07T04:20:30.683Z,98.85
2023-01-07T04:21:03.195Z,98.95
2023-01-07T04:21:35.675Z,99.15
2023-01-07T04:22:08.191Z,99.26
2023-01-07T04:22:40.702Z,99.15
2023-01-07T04:23:13.260Z,98.74
2023-01-07T04:23:45.781Z,98.65
2023-01-07T04:24:18.488Z,98.74
2023-01-07T04:24:50.989Z,98.44
2023-01-07T04:25:23.545Z,98.74
2023-01-07T04:25:56.068Z,98.95
2023-01-07T04:26:28.568Z,98.85
2023-01-07T04:27:01.060Z,98.85
2023-01-07T04:27:33.605Z,98.74
2023-01-07T04:28:06.095Z,98.95
2023-01-07T04:28:38.620Z,99.36
2023-01-07T04:29:11.136Z,99.56
2023-01-07T04:29:43.695Z,98.95
2023-01-07T04:30:16.196Z,98.85
2023-01-07T04:30:48.786Z,98.95
2023-01-07T04:31:21.220Z,98.74
2023-01-07T04:31:53.884Z,98.44
2023-01-07T04:32:26.349Z,98.65
2023-01-07T04:32:58.862Z,98.85
2023-01-07T04:33:31.398Z,99.05
2023-01-07T04:34:04.003Z,99.05
2023-01-07T04:34:36.545Z,98.95
2023-01-07T04:35:09.053Z,99.05
2023-01-07T04:35:41.613Z,99.26
2023-01-07T04:36:14.143Z,99.46
2023-01-07T04:36:46.672Z,99.66
2023-01-07T04:37:19.213Z,99.87
2023-01-07T04:37:51.729Z,99.36
2023-01-07T04:38:24.253Z,98.54
2023-01-07T04:38:56.791Z,98.24
2023-01-07T04:39:29.292Z,98.33
2023-01-07T04:40:01.798Z,98.54
2023-01-07T04:40:34.325Z,98.74
2023-01-07T04:41:06.850Z,98.85
2023-01-07T04:41:39.383Z,99.05
2023-01-07T04:42:11.869Z,99.15
2023-01-07T04:42:44.362Z,98.85
2023-01-07T04:43:16.915Z,98.33
2023-01-07T04:43:49.478Z,98.03
2023-01-07T04:44:22.006Z,98.03
2023-01-07T04:44:54.468Z,98.24
2023-01-07T04:45:26.972Z,98.44
2023-01-07T04:45:59.497Z,98.24
2023-01-07T04:46:32.080Z,98.24
2023-01-07T04:47:04.586Z,98.54
2023-01-07T04:47:37.150Z,98.85
2023-01-07T04:48:09.697Z,98.95
2023-01-07T04:48:42.226Z,98.65
2023-01-07T04:49:14.734Z,98.74
2023-01-07T04:49:47.218Z,98.74
2023-01-07T04:50:19.743Z,98.65
2023-01-07T04:50:52.280Z,98.54
2023-01-07T04:51:24.822Z,97.82
2023-01-07T04:51:58.025Z,97.72
2023-01-07T04:52:30.557Z,97.72
2023-01-07T04:53:03.118Z,97.72
2023-01-07T04:53:35.661Z,98.03
2023-01-07T04:54:08.185Z,98.33
2023-01-07T04:54:40.734Z,98.33
2023-01-07T04:55:13.221Z,97.82
2023-01-07T04:55:46.480Z,97.92
2023-01-07T04:56:18.242Z,98.03
2023-01-07T04:56:50.702Z,98.03
2023-01-07T04:57:23.240Z,98.28
2023-01-07T04:57:55.755Z,98.13
2023-01-07T04:58:28.246Z,98.18
2023-01-07T04:59:00.760Z,98.07
2023-01-07T04:59:33.260Z,98.38
2023-01-07T05:00:05.756Z,98.28
2023-01-07T05:00:38.284Z,98.07
2023-01-07T05:01:10.958Z,98.07
2023-01-07T05:01:43.401Z,97.97
2023-01-07T05:02:15.855Z,98.07
2023-01-07T05:02:48.385Z,98.18
2023-01-07T05:03:20.885Z,97.97
2023-01-07T05:03:53.391Z,98.07
2023-01-07T05:04:25.962Z,97.87
2023-01-07T05:04:58.438Z,97.97
2023-01-07T05:05:30.940Z,98.07
2023-01-07T05:06:03.481Z,98.18
2023-01-07T05:06:35.983Z,98.28
2023-01-07T05:07:08.502Z,98.28
2023-01-07T05:07:40.996Z,98.07
2023-01-07T05:08:13.531Z,98.07
2023-01-07T05:08:46.059Z,98.07
2023-01-07T05:09:18.569Z,98.18
2023-01-07T05:09:51.165Z,98.18
2023-01-07T05:10:23.771Z,98.07
2023-01-07T05:10:56.278Z,97.87
2023-01-07T05:11:29.529Z,97.87
2023-01-07T05:12:02.006Z,98.07
2023-01-07T05:12:34.486Z,98.22
2023-01-07T05:13:07.262Z,98.12
2023-01-07T05:13:39.485Z,98.63
2023-01-07T05:14:12.020Z,98.22
2023-01-07T05:14:44.581Z,97.71
2023-01-07T05:15:24.160Z,97.91
2023-01-07T05:15:56.976Z,98.43
2023-01-07T05:16:29.501Z,98.53
2023-01-07T05:17:02.028Z,97.91
2023-01-07T05:17:34.449Z,97.91
2023-01-07T05:18:07.051Z,98.02
2023-01-07T05:18:39.575Z,98.33
2023-01-07T05:19:12.074Z,98.94
2023-01-07T05:19:44.617Z,98.63
2023-01-07T05:20:17.120Z,98.43
2023-01-07T05:20:49.589Z,98.22
2023-01-07T05:21:22.077Z,98.53
2023-01-07T05:21:54.567Z,98.43
2023-01-07T05:22:27.034Z,98.33
2023-01-07T05:22:59.550Z,98.12
2023-01-07T05:23:32.064Z,98.33
2023-01-07T05:24:04.595Z,98.63
2023-01-07T05:24:37.104Z,98.43
2023-01-07T05:25:09.606Z,98.02
2023-01-07T05:25:42.107Z,98.33
2023-01-07T05:26:14.597Z,97.91
2023-01-07T05:26:47.192Z,97.81
2023-01-07T05:27:19.708Z,97.81
2023-01-07T05:27:52.211Z,97.91
2023-01-07T05:28:24.739Z,97.91
2023-01-07T05:28:57.240Z,98.12
2023-01-07T05:29:29.731Z,98.53
2023-01-07T05:30:02.225Z,98.63
2023-01-07T05:30:34.775Z,98.63
2023-01-07T05:31:07.249Z,98.33
2023-01-07T05:31:39.709Z,98.22
2023-01-07T05:32:12.214Z,98.33
2023-01-07T05:32:44.696Z,98.74
2023-01-07T05:33:17.184Z,98.43
2023-01-07T05:33:49.672Z,98.53
2023-01-07T05:34:22.161Z,98.63
2023-01-07T05:34:54.717Z,98.63
2023-01-07T05:35:27.225Z,98.74
2023-01-07T05:35:59.716Z,98.12
2023-01-07T05:36:32.232Z,98.02
2023-01-07T05:37:04.721Z,98.43
2023-01-07T05:37:37.182Z,98.74
2023-01-07T05:38:09.692Z,98.43
2023-01-07T05:38:42.253Z,98.43
2023-01-07T05:39:14.744Z,98.43
2023-01-07T05:39:47.255Z,98.43
2023-01-07T05:40:19.855Z,98.53
2023-01-07T05:40:52.370Z,98.43
2023-01-07T05:41:24.883Z,98.43
2023-01-07T05:41:57.479Z,98.78
2023-01-07T05:42:30.041Z,98.88
2023-01-07T05:43:02.528Z,99.15
2023-01-07T05:43:35.051Z,98.88
2023-01-07T05:44:07.559Z,98.99
2023-01-07T05:44:40.063Z,98.99
2023-01-07T05:45:12.613Z,98.78
2023-01-07T05:45:45.125Z,98.68
2023-01-07T05:46:17.676Z,98.78
2023-01-07T05:46:50.157Z,98.88
2023-01-07T05:47:22.655Z,99.09
2023-01-07T05:47:55.203Z,99.19
2023-01-07T05:48:27.697Z,99.09
2023-01-07T05:49:00.197Z,98.68
2023-01-07T05:49:32.761Z,98.47
2023-01-07T05:50:05.273Z,98.47
2023-01-07T05:50:37.752Z,98.47
2023-01-07T05:51:10.237Z,98.78
2023-01-07T05:51:42.784Z,98.37
2023-01-07T05:52:15.282Z,98.27
2023-01-07T05:52:47.763Z,98.47
2023-01-07T05:53:20.211Z,98.37
2023-01-07T05:53:52.748Z,98.16
2023-01-07T05:54:25.187Z,98.16
2023-01-07T05:54:57.680Z,98.16
2023-01-07T05:55:30.268Z,98.37
2023-01-07T05:56:02.717Z,98.47
2023-01-07T05:56:35.345Z,98.37
2023-01-07T05:57:07.825Z,98.58
2023-01-07T05:57:40.399Z,98.58
2023-01-07T05:58:12.901Z,98.07
2023-01-07T05:58:45.401Z,98.16
2023-01-07T05:59:17.890Z,98.27
2023-01-07T05:59:50.413Z,97.86
2023-01-07T06:00:22.924Z,97.75
2023-01-07T06:00:55.496Z,97.86
2023-01-07T06:01:28.024Z,98.16
2023-01-07T06:02:00.458Z,98.37
2023-01-07T06:02:32.961Z,98.68
2023-01-07T06:03:06.248Z,98.68
2023-01-07T06:03:38.792Z,98.58
2023-01-07T06:04:11.223Z,98.47
2023-01-07T06:04:43.780Z,98.99
2023-01-07T06:05:16.216Z,98.58
2023-01-07T06:05:48.726Z,98.37
2023-01-07T06:06:21.182Z,98.16
2023-01-07T06:06:53.717Z,98.37
2023-01-07T06:07:26.291Z,98.16
2023-01-07T06:07:58.823Z,98.68
2023-01-07T06:08:31.329Z,98.99
2023-01-07T06:09:03.911Z,98.47
2023-01-07T06:09:36.436Z,98.58
2023-01-07T06:10:08.933Z,98.58
2023-01-07T06:10:41.512Z,98.58
2023-01-07T06:11:14.051Z,98.16
2023-01-07T06:11:46.547Z,98.27
2023-01-07T06:12:19.068Z,97.96
2023-01-07T06:12:51.558Z,97.86
2023-01-07T06:13:24.049Z,97.96
2023-01-07T06:13:56.569Z,97.96
2023-01-07T06:14:29.047Z,98.37
2023-01-07T06:15:01.558Z,98.16
2023-01-07T06:15:34.142Z,97.86
2023-01-07T06:16:06.645Z,97.75
2023-01-07T06:16:39.080Z,98.07
2023-01-07T06:17:11.555Z,98.27
2023-01-07T06:17:44.041Z,98.16
2023-01-07T06:18:16.522Z,98.47
2023-01-07T06:18:49.013Z,98.37
2023-01-07T06:19:21.510Z,98.27
2023-01-07T06:19:54.018Z,98.78
2023-01-07T06:20:26.539Z,99.29
2023-01-07T06:20:59.100Z,98.99
2023-01-07T06:21:31.564Z,98.58
2023-01-07T06:22:04.047Z,97.86
2023-01-07T06:22:36.557Z,97.75
2023-01-07T06:23:09.051Z,97.65
2023-01-07T06:23:41.644Z,97.75
2023-01-07T06:24:14.162Z,97.55
2023-01-07T06:24:46.652Z,97.34
2023-01-07T06:25:19.191Z,97.14
2023-01-07T06:25:51.681Z,97.45
2023-01-07T06:26:24.591Z,97.14
2023-01-07T06:26:57.084Z,97.14
2023-01-07T06:27:29.575Z,97.14
2023-01-07T06:28:02.105Z,97.14
2023-01-07T06:28:34.628Z,97.04
2023-01-07T06:29:07.099Z,97.24
2023-01-07T06:29:39.646Z,97.86
2023-01-07T06:30:12.127Z,97.75
2023-01-07T06:30:44.665Z,97.55
2023-01-07T06:31:17.170Z,97.45
2023-01-07T06:31:49.658Z,97.39
2023-01-07T06:32:22.155Z,97.34
2023-01-07T06:32:54.656Z,97.49
2023-01-07T06:33:27.114Z,97.80
2023-01-07T06:33:59.589Z,97.70
2023-01-07T06:34:32.148Z,97.60
2023-01-07T06:35:04.662Z,97.80
2023-01-07T06:35:37.199Z,97.70
2023-01-07T06:36:09.691Z,97.29
2023-01-07T06:36:42.387Z,97.60
2023-01-07T06:37:14.983Z,97.70
2023-01-07T06:37:47.569Z,98.21
2023-01-07T06:38:20.117Z,98.72
2023-01-07T06:38:52.609Z,98.32
2023-01-07T06:39:25.138Z,98.21
2023-01-07T06:39:57.679Z,97.80
2023-01-07T06:40:30.215Z,98.11
2023-01-07T06:41:02.756Z,98.32
2023-01-07T06:41:35.272Z,98.11
2023-01-07T06:42:07.801Z,97.91
2023-01-07T06:42:40.397Z,98.00
2023-01-07T06:43:13.051Z,98.00
2023-01-07T06:43:45.656Z,98.00
2023-01-07T06:44:18.161Z,97.49
2023-01-07T06:44:50.705Z,97.29
2023-01-07T06:45:23.212Z,97.29
2023-01-07T06:45:55.819Z,97.29
2023-01-07T06:46:28.387Z,97.39
2023-01-07T06:47:00.850Z,97.60
2023-01-07T06:47:33.368Z,97.70
2023-01-07T06:48:05.844Z,97.91
2023-01-07T06:48:38.344Z,97.80
2023-01-07T06:49:10.845Z,97.39
2023-01-07T06:49:43.335Z,97.08
2023-01-07T06:50:15.903Z,97.29
2023-01-07T06:50:48.446Z,97.29
2023-01-07T06:51:20.895Z,97.39
2023-01-07T06:51:53.427Z,97.29
2023-01-07T06:52:26.025Z,97.08
2023-01-07T06:52:58.532Z,97.08
2023-01-07T06:53:31.044Z,96.98
2023-01-07T06:54:03.524Z,96.67
2023-01-07T06:54:36.077Z,96.67
2023-01-07T06:55:08.609Z,96.88
2023-01-07T06:55:41.124Z,96.67
2023-01-07T06:56:13.655Z,96.88
2023-01-07T06:56:46.189Z,96.78
2023-01-07T06:57:18.698Z,96.88
2023-01-07T06:57:51.329Z,96.78
2023-01-07T06:58:23.928Z,96.67
2023-01-07T06:58:56.325Z,96.78